WetterOnline ( http://www.wetteronline.ch )

Wetter aktuell Der Rennsteig (in 900m)

Aktuelles Wetter: Schmücke (948m)

6-stündlich | Neueste Meldungen
Ortszeit Temperatur Wetter
Mi, 20.02. 13:00 0.7° C bewölkt
Mi, 20.02. 7:00 -0.9° C Nebel
Mi, 20.02. 1:00 -0.7° C leicht bewölkt
Di, 19.02. 19:00 0.3° C bewölkt
Di, 19.02. 13:00 -0.1° C leichter Schneefall
Di, 19.02. 7:00 0.8° C bedeckt
Di, 19.02. 1:00 3.3° C leicht bewölkt
Mo, 18.02. 19:00 4.1° C wolkenlos
Ortszeit Temperatur Wetter
Mi, 20.02. 15:00 1.8° C -
Mi, 20.02. 14:50 1.8° C -
Mi, 20.02. 14:40 1.7° C -
Mi, 20.02. 14:30 1.8° C bedeckt
Mi, 20.02. 14:20 1.8° C bedeckt
Mi, 20.02. 14:10 1.7° C bedeckt
Mi, 20.02. 14:00 1.5° C bedeckt
Mi, 20.02. 13:30 1.0° C bedeckt
Mi, 20.02. 13:00 0.7° C bewölkt
Mi, 20.02. 12:30 0.4° C bewölkt
Mi, 20.02. 12:00 0.1° C bedeckt
Ortszeit Relative Feuchte Sichtweite
Mi, 20.02. 13:00 94% 5.0 km
Mi, 20.02. 7:00 97% 0.5 km
Mi, 20.02. 1:00 94% 5.0 km
Di, 19.02. 19:00 93% 12 km
Di, 19.02. 13:00 94% 5.0 km
Di, 19.02. 7:00 81% 30 km
Di, 19.02. 1:00 68% 29 km
Mo, 18.02. 19:00 66% 28 km
Ortszeit Relative Feuchte Sichtweite
Mi, 20.02. 15:00 87% 16 km
Mi, 20.02. 14:50 87% -
Mi, 20.02. 14:40 87% -
Mi, 20.02. 14:30 87% 16 km
Mi, 20.02. 14:20 87% -
Mi, 20.02. 14:10 88% -
Mi, 20.02. 14:00 89% 11 km
Mi, 20.02. 13:30 93% 8 km
Mi, 20.02. 13:00 94% 5.0 km
Mi, 20.02. 12:30 96% 3.5 km
Mi, 20.02. 12:00 96% 2.1 km
Ortszeit Niederschlagsmenge Niederschlagsart
Mi, 20.02. 13:00 0.0 l/m2 in 6 Std. -
Mi, 20.02. 7:00 0.0 l/m2 in 12 Std. -
Mi, 20.02. 1:00 0.0 l/m2 in 6 Std. -
Di, 19.02. 19:00 0.3 l/m2 in 12 Std. Schnee
Di, 19.02. 13:00 0.2 l/m2 in 6 Std. Schnee, Regen
Di, 19.02. 7:00 0.0 l/m2 in 12 Std. -
Di, 19.02. 1:00 0.0 l/m2 in 6 Std. -
Mo, 18.02. 19:00 0.0 l/m2 in 12 Std. -
Ortszeit Niederschlagsmenge Niederschlagsart
Mi, 20.02. 15:00 0.0 l/m2 in 1 Std. -
Mi, 20.02. 14:50 keine Meldung -
Mi, 20.02. 14:40 keine Meldung -
Mi, 20.02. 14:30 0.0 l/m2 in 1 Std. -
Mi, 20.02. 14:20 keine Meldung -
Mi, 20.02. 14:10 keine Meldung -
Mi, 20.02. 14:00 0.0 l/m2 in 1 Std. -
Mi, 20.02. 13:30 0.0 l/m2 in 1 Std. -
Mi, 20.02. 13:00 0.0 l/m2 in 1 Std. -
Mi, 20.02. 12:30 0.0 l/m2 in 1 Std. -
Mi, 20.02. 12:00 0.0 l/m2 in 1 Std. -
Ortszeit Stärke Spitze Richtung
km/h Bft. km/h Grad Sektor
Mi, 20.02. 13:00 13 3 26 240° SW
Mi, 20.02. 7:00 11 2 30 240° SW
Mi, 20.02. 1:00 20 4 33 250° W
Di, 19.02. 19:00 22 4 40 240° SW
Di, 19.02. 13:00 14 3 29 240° SW
Di, 19.02. 7:00 20 4 39 240° SW
Di, 19.02. 1:00 25 4 40 240° SW
Mo, 18.02. 19:00 22 4 37 230° SW
Ortszeit Stärke Spitze Richtung
km/h Bft. km/h Grad Sektor
Mi, 20.02. 15:00 14 3 32 230° SW
Mi, 20.02. 14:50 14 3 - 230° SW
Mi, 20.02. 14:40 15 3 - 220° SW
Mi, 20.02. 14:30 14 3 32 220° SW
Mi, 20.02. 14:20 14 3 - 220° SW
Mi, 20.02. 14:10 15 3 - 220° SW
Mi, 20.02. 14:00 22 4 32 220° SW
Mi, 20.02. 13:30 18 3 29 230° SW
Mi, 20.02. 13:00 13 3 22 240° SW
Mi, 20.02. 12:30 14 3 22 230° SW
Mi, 20.02. 12:00 13 3 24 220° SW
Ortszeit Untergrenze Bedeckung Gattung
total tief tief mittel hoch
Mi, 20.02. 13:00 60 m 7/8 7/8 - - -
Mi, 20.02. 7:00 <30 m 8/8 0/8 - - -
Mi, 20.02. 1:00 9000 m 6/8 0/8 - - -
Di, 19.02. 19:00 270 m 7/8 7/8 - - -
Di, 19.02. 13:00 30 m 8/8 8/8 - - -
Di, 19.02. 7:00 6300 m 8/8 8/8 - - -
Di, 19.02. 1:00 8700 m 6/8 0/8 - - -
Mo, 18.02. 19:00 - 0/8 0/8 - - -
Ortszeit Bedeckungsgrad in Achtel und Wolkenuntergrenze
Mi, 20.02. 15:00 -
Mi, 20.02. 14:50 -
Mi, 20.02. 14:40 -
Mi, 20.02. 14:30 8(210m) 8(2700m)
Mi, 20.02. 14:20 8(210m) 8(2700m)
Mi, 20.02. 14:10 8(180m) 8(2700m)
Mi, 20.02. 14:00 8(150m)
Mi, 20.02. 13:30 8(90m)
Mi, 20.02. 13:00 7(60m)
Mi, 20.02. 12:30 7(30m)
Mi, 20.02. 12:00 8(30m)
Ortszeit Stationsdruck (hPa) Tendenz (hPa in 3 Std.)
Mi, 20.02. 13:00 913 + 0,6
Mi, 20.02. 7:00 911 + 0,4
Mi, 20.02. 1:00 911 + 0,2
Di, 19.02. 19:00 910 + 0,8
Di, 19.02. 13:00 909 + 0,6
Di, 19.02. 7:00 907 - 0,2
Di, 19.02. 1:00 908 - 0,7
Mo, 18.02. 19:00 909 - 0,9
Ortszeit Stationsdruck (hPa) Tendenz (hPa in 3 Std.)
Mi, 20.02. 15:00 913 - 0,2
Mi, 20.02. 14:50 913 keine Meldung
Mi, 20.02. 14:40 913 keine Meldung
Mi, 20.02. 14:30 913 - 0,1
Mi, 20.02. 14:20 913 keine Meldung
Mi, 20.02. 14:10 913 keine Meldung
Mi, 20.02. 14:00 913 + 0,2
Mi, 20.02. 13:30 913 + 0,3
Mi, 20.02. 13:00 913 + 0,6
Mi, 20.02. 12:30 913 + 1,0
Mi, 20.02. 12:00 913 + 1,3
Ortszeit Schneehöhe (cm)
Mi, 20.02. 13:00 62
Mi, 20.02. 7:00 62
Mi, 20.02. 1:00 62
Di, 19.02. 19:00 62
Di, 19.02. 13:00 63
Di, 19.02. 7:00 62
Di, 19.02. 1:00 62
Mo, 18.02. 19:00 63
Ortszeit Schneehöhe (cm)
Mi, 20.02. 15:00 62
Mi, 20.02. 14:50 62
Mi, 20.02. 14:40 62
Mi, 20.02. 14:30 62
Mi, 20.02. 14:20 62
Mi, 20.02. 14:10 62
Mi, 20.02. 14:00 62
Mi, 20.02. 13:30 62
Mi, 20.02. 13:00 62
Mi, 20.02. 12:30 62
Mi, 20.02. 12:00 62
Link zu dieser Seite / Seite empfehlen

Das Wetter in ...